地図

経路データ

SID SEASON NUMBER BASIN SUBBASIN NAME ISO_TIME NATURE LAT LON WMO_WIND WMO_PRES WMO_AGENCY TRACK_TYPE DIST2LAND LANDFALL IFLAG USA_AGENCY USA_ATCF_ID USA_LAT USA_LON USA_RECORD USA_STATUS USA_WIND USA_PRES USA_SSHS USA_R34_NE USA_R34_SE USA_R34_SW USA_R34_NW USA_R50_NE USA_R50_SE USA_R50_SW USA_R50_NW USA_R64_NE USA_R64_SE USA_R64_SW USA_R64_NW USA_POCI USA_ROCI USA_RMW USA_EYE TOKYO_LAT TOKYO_LON TOKYO_GRADE TOKYO_WIND TOKYO_PRES TOKYO_R50_DIR TOKYO_R50_LONG TOKYO_R50_SHORT TOKYO_R30_DIR TOKYO_R30_LONG TOKYO_R30_SHORT TOKYO_LAND CMA_LAT CMA_LON CMA_CAT CMA_WIND CMA_PRES HKO_LAT HKO_LON HKO_CAT HKO_WIND HKO_PRES NEWDELHI_LAT NEWDELHI_LON NEWDELHI_GRADE NEWDELHI_WIND NEWDELHI_PRES NEWDELHI_CI NEWDELHI_DP NEWDELHI_POCI REUNION_LAT REUNION_LON REUNION_TYPE REUNION_WIND REUNION_PRES REUNION_TNUM REUNION_CI REUNION_RMW REUNION_R34_NE REUNION_R34_SE REUNION_R34_SW REUNION_R34_NW REUNION_R50_NE REUNION_R50_SE REUNION_R50_SW REUNION_R50_NW REUNION_R64_NE REUNION_R64_SE REUNION_R64_SW REUNION_R64_NW BOM_LAT BOM_LON BOM_TYPE BOM_WIND BOM_PRES BOM_TNUM BOM_CI BOM_RMW BOM_R34_NE BOM_R34_SE BOM_R34_SW BOM_R34_NW BOM_R50_NE BOM_R50_SE BOM_R50_SW BOM_R50_NW BOM_R64_NE BOM_R64_SE BOM_R64_SW BOM_R64_NW BOM_ROCI BOM_POCI BOM_EYE BOM_POS_METHOD BOM_PRES_METHOD NADI_LAT NADI_LON NADI_CAT NADI_WIND NADI_PRES WELLINGTON_LAT WELLINGTON_LON WELLINGTON_WIND WELLINGTON_PRES DS824_LAT DS824_LON DS824_STAGE DS824_WIND DS824_PRES TD9636_LAT TD9636_LON TD9636_STAGE TD9636_WIND TD9636_PRES TD9635_LAT TD9635_LON TD9635_WIND TD9635_PRES TD9635_ROCI NEUMANN_LAT NEUMANN_LON NEUMANN_CLASS NEUMANN_WIND NEUMANN_PRES MLC_LAT MLC_LON MLC_CLASS MLC_WIND MLC_PRES USA_GUST BOM_GUST BOM_GUST_PER REUNION_GUST REUNION_GUST_PER USA_SEAHGT USA_SEARAD_NE USA_SEARAD_SE USA_SEARAD_SW USA_SEARAD_NW STORM_SPEED STORM_DIR
1914067S13157 1914 8 SP EA NOT_NAMED 1914-03-07 23:00:00 NR -13.1000 156.800 main 493 493 __________O___ -1 -13.1000 156.800 7 3 223
1914067S13157 1914 8 SP EA NOT_NAMED 1914-03-08 00:00:00 NR -13.1411 156.760 main 493 493 __________P___ -1 -13.1411 156.760 7 3 224
1914067S13157 1914 8 SP EA NOT_NAMED 1914-03-08 03:00:00 NR -13.2647 156.637 main 524 524 __________P___ -1 -13.2647 156.637 7 3 224
1914067S13157 1914 8 SP EA NOT_NAMED 1914-03-08 06:00:00 NR -13.3892 156.514 main 540 540 __________P___ -1 -13.3892 156.514 7 4 224
1914067S13157 1914 8 SP EA NOT_NAMED 1914-03-08 09:00:00 NR -13.5150 156.387 main 555 555 __________P___ -1 -13.5150 156.387 7 4 225
1914067S13157 1914 8 SP EA NOT_NAMED 1914-03-08 11:00:00 NR -13.6000 156.300 main 571 571 __________O___ -1 -13.6000 156.300 7 4 224
1914067S13157 1914 8 SP EA NOT_NAMED 1914-03-08 12:00:00 NR -13.6429 156.256 main 571 571 __________P___ -1 -13.6429 156.256 7 4 225
1914067S13157 1914 8 SP EA NOT_NAMED 1914-03-08 15:00:00 NR -13.7757 156.119 main 602 602 __________P___ -1 -13.7757 156.119 7 4 225
1914067S13157 1914 8 SP EA NOT_NAMED 1914-03-08 18:00:00 NR -13.9194 155.972 main 618 618 __________P___ -1 -13.9194 155.972 7 4 224
1914067S13157 1914 8 SP EA NOT_NAMED 1914-03-08 21:00:00 NR -14.0802 155.814 main 649 649 __________P___ -1 -14.0802 155.814 7 5 223
1914067S13157 1914 8 SP EA NOT_NAMED 1914-03-08 23:00:00 NR -14.2000 155.700 main 664 664 __________O___ -1 -14.2000 155.700 7 5 222
1914067S13157 1914 8 SP EA NOT_NAMED 1914-03-09 00:00:00 NR -14.2649 155.641 main 674 672 __________P___ -1 -14.2649 155.641 7 5 221
1914067S13157 1914 8 SP EA NOT_NAMED 1914-03-09 03:00:00 NR -14.4763 155.455 main 679 670 __________P___ -1 -14.4763 155.455 7 6 220
1914067S13157 1914 8 SP EA NOT_NAMED 1914-03-09 06:00:00 NR -14.7051 155.254 main 678 670 __________P___ -1 -14.7051 155.254 7 6 221
1914067S13157 1914 8 SP EA NOT_NAMED 1914-03-09 09:00:00 NR -14.9421 155.044 main 670 670 __________P___ -1 -14.9421 155.044 7 6 221
1914067S13157 1914 8 SP EA NOT_NAMED 1914-03-09 11:00:00 NR -15.1000 154.900 main 679 679 __________O___ -1 -15.1000 154.900 7 6 222
1914067S13157 1914 8 SP EA NOT_NAMED 1914-03-09 12:00:00 NR -15.1787 154.825 main 680 680 __________P___ -1 -15.1787 154.825 7 7 223
1914067S13157 1914 8 SP EA NOT_NAMED 1914-03-09 15:00:00 NR -15.4163 154.592 main 683 683 __________P___ -1 -15.4163 154.592 7 7 224
1914067S13157 1914 8 SP EA NOT_NAMED 1914-03-09 18:00:00 NR -15.6490 154.358 main 688 688 __________P___ -1 -15.6490 154.358 7 6 224
1914067S13157 1914 8 SP EA NOT_NAMED 1914-03-09 21:00:00 NR -15.8672 154.136 main 698 698 __________P___ -1 -15.8672 154.136 7 6 225
1914067S13157 1914 8 SP EA NOT_NAMED 1914-03-09 23:00:00 NR -16.0000 154.000 main 702 696 __________O___ -1 -16.0000 154.000 7 5 226
1914067S13157 1914 8 SP EA NOT_NAMED 1914-03-10 00:00:00 NR -16.0563 153.935 main 706 699 __________P___ -1 -16.0563 153.935 7 5 229
1914067S13157 1914 8 SP EA NOT_NAMED 1914-03-10 03:00:00 NR -16.2073 153.754 main 699 676 __________P___ -1 -16.2073 153.754 7 4 228
1914067S13157 1914 8 SP EA NOT_NAMED 1914-03-10 06:00:00 NR -16.3459 153.598 main 676 653 __________P___ -1 -16.3459 153.598 7 4 224
1914067S13157 1914 8 SP EA NOT_NAMED 1914-03-10 09:00:00 NR -16.4907 153.469 main 653 637 __________P___ -1 -16.4907 153.469 7 4 217
1914067S13157 1914 8 SP EA NOT_NAMED 1914-03-10 11:00:00 NR -16.6000 153.400 main 637 630 __________O___ -1 -16.6000 153.400 7 4 208
1914067S13157 1914 8 SP EA NOT_NAMED 1914-03-10 12:00:00 NR -16.6686 153.367 main 630 607 __________P___ -1 -16.6686 153.367 7 5 200
1914067S13157 1914 8 SP EA NOT_NAMED 1914-03-10 15:00:00 NR -16.8925 153.291 main 607 585 __________P___ -1 -16.8925 153.291 7 5 194
1914067S13157 1914 8 SP EA NOT_NAMED 1914-03-10 18:00:00 NR -17.1290 153.241 main 585 571 __________P___ -1 -17.1290 153.241 7 5 189
1914067S13157 1914 8 SP EA NOT_NAMED 1914-03-10 21:00:00 NR -17.3592 153.211 main 565 558 __________P___ -1 -17.3592 153.211 7 5 186
1914067S13157 1914 8 SP EA NOT_NAMED 1914-03-10 23:00:00 NR -17.5000 153.200 main 558 552 __________O___ -1 -17.5000 153.200 7 4 0
1914067S13157 1914 8 SP EA NOT_NAMED 1914-03-11 00:00:00 NR -17.5613 153.191 main 552 546 __________P___ -1 -17.5613 153.191 7 3 187
1914067S13157 1914 8 SP EA NOT_NAMED 1914-03-11 03:00:00 NR -17.7291 153.173 main 546 534 __________P___ -1 -17.7291 153.173 7 3 180
1914067S13157 1914 8 SP EA NOT_NAMED 1914-03-11 06:00:00 NR -17.8778 153.171 main 534 528 __________P___ -1 -17.8778 153.171 7 3 176
1914067S13157 1914 8 SP EA NOT_NAMED 1914-03-11 09:00:00 NR -18.0136 153.183 main 528 523 __________P___ -1 -18.0136 153.183 7 3 173
1914067S13157 1914 8 SP EA NOT_NAMED 1914-03-11 11:00:00 NR -18.1000 153.200 main 523 523 __________O___ -1 -18.1000 153.200 7 3 172
1914067S13157 1914 8 SP EA NOT_NAMED 1914-03-11 12:00:00 NR -18.1436 153.187 main 523 503 __________P___ -1 -18.1436 153.187 7 3 198
1914067S13157 1914 8 SP EA NOT_NAMED 1914-03-11 15:00:00 NR -18.2684 153.148 main 503 498 __________P___ -1 -18.2684 153.148 7 2 191
1914067S13157 1914 8 SP EA NOT_NAMED 1914-03-11 18:00:00 NR -18.3893 153.153 main 508 503 __________P___ -1 -18.3893 153.153 7 3 159
1914067S13157 1914 8 SP EA NOT_NAMED 1914-03-11 21:00:00 NR -18.5129 153.253 main 512 503 __________P___ -1 -18.5129 153.253 7 4 132
1914067S13157 1914 8 SP EA NOT_NAMED 1914-03-11 23:00:00 NR -18.6000 153.400 main 509 509 __________O___ -1 -18.6000 153.400 7 6 121
1914067S13157 1914 8 SP EA NOT_NAMED 1914-03-12 00:00:00 NR -18.6580 153.513 main 506 506 __________P___ -1 -18.6580 153.513 7 9 115
1914067S13157 1914 8 SP EA NOT_NAMED 1914-03-12 03:00:00 NR -18.8421 153.959 main 529 520 __________P___ -1 -18.8421 153.959 7 10 111
1914067S13157 1914 8 SP EA NOT_NAMED 1914-03-12 06:00:00 NR -19.0163 154.514 main 548 548 __________P___ -1 -19.0163 154.514 7 11 106
1914067S13157 1914 8 SP EA NOT_NAMED 1914-03-12 09:00:00 NR -19.1494 155.111 main 586 579 __________P___ -1 -19.1494 155.111 7 11 101
1914067S13157 1914 8 SP EA NOT_NAMED 1914-03-12 11:00:00 NR -19.2000 155.500 main 611 611 __________O___ -1 -19.2000 155.500 7 11 96
1914067S13157 1914 8 SP EA NOT_NAMED 1914-03-12 12:00:00 NR -19.2050 155.670 main 628 628 __________P___ -1 -19.2050 155.670 7 10 87
1914067S13157 1914 8 SP EA NOT_NAMED 1914-03-12 15:00:00 NR -19.1708 156.172 main 671 671 __________P___ -1 -19.1708 156.172 7 9 83
1914067S13157 1914 8 SP EA NOT_NAMED 1914-03-12 18:00:00 NR -19.0843 156.654 main 721 721 __________P___ -1 -19.0843 156.654 7 9 77
1914067S13157 1914 8 SP EA NOT_NAMED 1914-03-12 21:00:00 NR -18.9735 157.112 main 736 708 __________P___ -1 -18.9735 157.112 7 9 75
1914067S13157 1914 8 SP EA NOT_NAMED 1914-03-12 23:00:00 NR -18.9000 157.400 main 708 698 __________O___ -1 -18.9000 157.400 7 8 77
1914067S13157 1914 8 SP EA NOT_NAMED 1914-03-13 00:00:00 NR -18.8761 157.543 main 698 660 __________P___ -1 -18.8761 157.543 7 8 80
1914067S13157 1914 8 SP EA NOT_NAMED 1914-03-13 03:00:00 NR -18.8051 157.953 main 650 623 __________P___ -1 -18.8051 157.953 7 8 79
1914067S13157 1914 8 SP EA NOT_NAMED 1914-03-13 06:00:00 NR -18.7326 158.333 main 623 583 __________P___ -1 -18.7326 158.333 7 7 78
1914067S13157 1914 8 SP EA NOT_NAMED 1914-03-13 09:00:00 NR -18.6556 158.683 main 583 567 __________P___ -1 -18.6556 158.683 7 7 76
1914067S13157 1914 8 SP EA NOT_NAMED 1914-03-13 11:00:00 NR -18.6000 158.900 main 567 557 __________O___ -1 -18.6000 158.900 7 6 74
1914067S13157 1914 8 SP EA NOT_NAMED 1914-03-13 12:00:00 NR -18.5706 159.003 main 557 532 __________P___ -1 -18.5706 159.003 7 6 72
1914067S13157 1914 8 SP EA NOT_NAMED 1914-03-13 15:00:00 NR -18.4768 159.297 main 532 508 __________P___ -1 -18.4768 159.297 7 6 70
1914067S13157 1914 8 SP EA NOT_NAMED 1914-03-13 18:00:00 NR -18.3761 159.570 main 508 494 __________P___ -1 -18.3761 159.570 7 5 68
1914067S13157 1914 8 SP EA NOT_NAMED 1914-03-13 21:00:00 NR -18.2712 159.830 main 494 481 __________P___ -1 -18.2712 159.830 7 5 67
1914067S13157 1914 8 SP MM NOT_NAMED 1914-03-13 23:00:00 NR -18.2000 160.000 main 481 __________O___ -1 -18.2000 160.000 7 5 66

デジタル台風データ・検索

IBTrACS Databaseについて

本データベースは、米国NOAAが公開する1842年以降の世界の熱帯低気圧のベストトラックデータアーカイブInternational Best Track Archive for Climate Stewardship (IBTrACS)を、ウェブで閲覧しやすい形式に変換したものです。

最終更新日:2021-12-01